sensor_id;sensor_type;location;lat;lon;timestamp;pressure;altitude;pressure_sealevel;temperature;humidity
22743;BME280;11538;48.884;8.696;2023-03-14T00:00:12;97088.16;;;11.02;100.00
22743;BME280;11538;48.884;8.696;2023-03-14T00:02:41;97091.31;;;11.04;100.00
22743;BME280;11538;48.884;8.696;2023-03-14T00:05:08;97090.50;;;11.03;100.00
22743;BME280;11538;48.884;8.696;2023-03-14T00:07:38;97095.47;;;11.01;100.00
22743;BME280;11538;48.884;8.696;2023-03-14T00:10:12;97094.00;;;11.04;100.00
22743;BME280;11538;48.884;8.696;2023-03-14T00:12:41;97092.44;;;11.03;100.00
22743;BME280;11538;48.884;8.696;2023-03-14T00:15:09;97085.50;;;11.05;100.00
22743;BME280;11538;48.884;8.696;2023-03-14T00:17:36;97086.41;;;11.09;100.00
22743;BME280;11538;48.884;8.696;2023-03-14T00:20:06;97080.22;;;11.09;100.00
22743;BME280;11538;48.884;8.696;2023-03-14T00:22:39;97069.00;;;11.10;100.00
22743;BME280;11538;48.884;8.696;2023-03-14T00:25:09;97075.09;;;11.07;100.00
22743;BME280;11538;48.884;8.696;2023-03-14T00:27:37;97068.91;;;11.07;100.00
22743;BME280;11538;48.884;8.696;2023-03-14T00:30:05;97070.03;;;11.06;100.00
22743;BME280;11538;48.884;8.696;2023-03-14T00:32:34;97079.75;;;11.07;100.00
22743;BME280;11538;48.884;8.696;2023-03-14T00:35:02;97066.09;;;11.03;100.00
22743;BME280;11538;48.884;8.696;2023-03-14T00:37:30;97065.75;;;11.05;100.00
22743;BME280;11538;48.884;8.696;2023-03-14T00:39:57;97059.06;;;11.02;100.00
22743;BME280;11538;48.884;8.696;2023-03-14T00:42:25;97056.28;;;10.99;100.00
22743;BME280;11538;48.884;8.696;2023-03-14T00:44:52;97060.38;;;10.92;100.00
22743;BME280;11538;48.884;8.696;2023-03-14T00:47:18;97054.94;;;10.92;100.00
22743;BME280;11538;48.884;8.696;2023-03-14T00:49:45;97069.28;;;10.93;100.00
22743;BME280;11538;48.884;8.696;2023-03-14T00:52:13;97077.34;;;10.89;100.00
22743;BME280;11538;48.884;8.696;2023-03-14T00:54:40;97090.22;;;10.92;100.00
22743;BME280;11538;48.884;8.696;2023-03-14T00:57:07;97087.13;;;10.94;100.00
22743;BME280;11538;48.884;8.696;2023-03-14T00:59:34;97087.81;;;10.91;100.00
22743;BME280;11538;48.884;8.696;2023-03-14T01:02:01;97089.06;;;10.93;100.00
22743;BME280;11538;48.884;8.696;2023-03-14T01:04:27;97088.72;;;10.95;100.00
22743;BME280;11538;48.884;8.696;2023-03-14T01:06:56;97089.97;;;10.97;100.00
22743;BME280;11538;48.884;8.696;2023-03-14T01:09:23;97088.38;;;10.96;100.00
22743;BME280;11538;48.884;8.696;2023-03-14T01:11:50;97079.19;;;11.01;100.00
22743;BME280;11538;48.884;8.696;2023-03-14T01:14:17;97074.66;;;11.05;100.00
22743;BME280;11538;48.884;8.696;2023-03-14T01:16:44;97082.13;;;11.08;100.00
22743;BME280;11538;48.884;8.696;2023-03-14T01:19:11;97073.28;;;11.11;100.00
22743;BME280;11538;48.884;8.696;2023-03-14T01:21:38;97077.13;;;11.10;100.00
22743;BME280;11538;48.884;8.696;2023-03-14T01:24:06;97054.53;;;11.06;100.00
22743;BME280;11538;48.884;8.696;2023-03-14T01:26:35;97036.00;;;11.08;100.00
22743;BME280;11538;48.884;8.696;2023-03-14T01:29:02;97020.53;;;11.09;100.00
22743;BME280;11538;48.884;8.696;2023-03-14T01:31:30;97006.94;;;11.09;100.00
22743;BME280;11538;48.884;8.696;2023-03-14T01:33:57;97009.66;;;11.09;100.00
22743;BME280;11538;48.884;8.696;2023-03-14T01:36:24;97014.28;;;11.08;100.00
22743;BME280;11538;48.884;8.696;2023-03-14T01:38:51;97014.66;;;11.07;100.00
22743;BME280;11538;48.884;8.696;2023-03-14T01:41:23;97001.84;;;11.07;100.00
22743;BME280;11538;48.884;8.696;2023-03-14T01:43:51;96992.94;;;11.07;100.00
22743;BME280;11538;48.884;8.696;2023-03-14T01:46:44;96996.78;;;11.06;100.00
22743;BME280;11538;48.884;8.696;2023-03-14T01:49:32;96986.72;;;11.06;100.00
22743;BME280;11538;48.884;8.696;2023-03-14T01:52:02;96994.78;;;11.03;100.00
22743;BME280;11538;48.884;8.696;2023-03-14T01:54:42;96980.78;;;11.01;100.00
22743;BME280;11538;48.884;8.696;2023-03-14T01:57:18;96970.50;;;10.94;100.00
22743;BME280;11538;48.884;8.696;2023-03-14T01:59:57;96983.19;;;10.90;100.00
22743;BME280;11538;48.884;8.696;2023-03-14T02:02:27;96983.09;;;10.86;100.00
22743;BME280;11538;48.884;8.696;2023-03-14T02:04:57;96974.06;;;10.82;100.00
22743;BME280;11538;48.884;8.696;2023-03-14T02:07:32;96983.78;;;10.83;100.00
22743;BME280;11538;48.884;8.696;2023-03-14T02:10:03;96983.44;;;10.85;100.00
22743;BME280;11538;48.884;8.696;2023-03-14T02:12:32;96985.25;;;10.80;100.00
22743;BME280;11538;48.884;8.696;2023-03-14T02:15:00;96966.88;;;10.74;100.00
22743;BME280;11538;48.884;8.696;2023-03-14T02:17:27;96978.63;;;10.78;100.00
22743;BME280;11538;48.884;8.696;2023-03-14T02:20:22;96982.47;;;10.77;100.00
22743;BME280;11538;48.884;8.696;2023-03-14T02:22:52;96963.91;;;10.79;100.00
22743;BME280;11538;48.884;8.696;2023-03-14T02:25:38;96953.97;;;10.83;100.00
22743;BME280;11538;48.884;8.696;2023-03-14T02:28:07;96954.66;;;10.80;100.00
22743;BME280;11538;48.884;8.696;2023-03-14T02:30:34;96961.22;;;10.79;100.00
22743;BME280;11538;48.884;8.696;2023-03-14T02:33:18;96967.75;;;10.78;100.00
22743;BME280;11538;48.884;8.696;2023-03-14T02:38:28;96963.22;;;10.82;100.00
22743;BME280;11538;48.884;8.696;2023-03-14T02:40:57;96967.59;;;10.87;100.00
22743;BME280;11538;48.884;8.696;2023-03-14T02:43:24;96955.53;;;10.84;100.00
22743;BME280;11538;48.884;8.696;2023-03-14T02:45:52;96957.81;;;10.82;100.00
22743;BME280;11538;48.884;8.696;2023-03-14T02:48:26;96954.28;;;10.81;100.00
22743;BME280;11538;48.884;8.696;2023-03-14T02:50:57;96952.38;;;10.82;100.00
22743;BME280;11538;48.884;8.696;2023-03-14T02:53:29;96956.66;;;10.83;100.00
22743;BME280;11538;48.884;8.696;2023-03-14T02:55:58;96978.00;;;10.85;100.00
22743;BME280;11538;48.884;8.696;2023-03-14T02:58:26;96942.06;;;10.88;100.00
22743;BME280;11538;48.884;8.696;2023-03-14T03:00:54;96930.88;;;10.89;100.00
22743;BME280;11538;48.884;8.696;2023-03-14T03:03:21;96937.44;;;10.88;100.00
22743;BME280;11538;48.884;8.696;2023-03-14T03:05:50;96928.06;;;10.86;100.00
22743;BME280;11538;48.884;8.696;2023-03-14T03:08:19;96925.00;;;10.87;100.00
22743;BME280;11538;48.884;8.696;2023-03-14T03:10:47;96912.22;;;10.88;100.00
22743;BME280;11538;48.884;8.696;2023-03-14T03:13:14;96904.44;;;10.86;99.76
22743;BME280;11538;48.884;8.696;2023-03-14T03:15:42;96908.28;;;10.85;99.49
22743;BME280;11538;48.884;8.696;2023-03-14T03:18:09;96901.28;;;10.84;98.00
22743;BME280;11538;48.884;8.696;2023-03-14T03:20:37;96905.59;;;10.85;97.74
22743;BME280;11538;48.884;8.696;2023-03-14T03:23:04;96902.06;;;10.85;96.13
22743;BME280;11538;48.884;8.696;2023-03-14T03:25:31;96897.44;;;10.85;96.80
22743;BME280;11538;48.884;8.696;2023-03-14T03:27:58;96890.88;;;10.86;95.86
22743;BME280;11538;48.884;8.696;2023-03-14T03:30:25;96888.88;;;10.83;94.50
22743;BME280;11538;48.884;8.696;2023-03-14T03:32:52;96898.16;;;10.82;94.09
22743;BME280;11538;48.884;8.696;2023-03-14T03:35:19;96897.44;;;10.85;93.52
22743;BME280;11538;48.884;8.696;2023-03-14T03:37:46;96878.91;;;10.87;94.32
22743;BME280;11538;48.884;8.696;2023-03-14T03:40:13;96888.94;;;10.87;92.05
22743;BME280;11538;48.884;8.696;2023-03-14T03:42:39;96883.88;;;10.85;92.30
22743;BME280;11538;48.884;8.696;2023-03-14T03:45:07;96869.53;;;10.85;92.51
22743;BME280;11538;48.884;8.696;2023-03-14T03:47:34;96869.91;;;10.83;91.72
22743;BME280;11538;48.884;8.696;2023-03-14T03:50:01;96864.81;;;10.81;91.62
22743;BME280;11538;48.884;8.696;2023-03-14T03:52:28;96850.91;;;10.83;91.28
22743;BME280;11538;48.884;8.696;2023-03-14T03:54:55;96838.03;;;10.80;91.17
22743;BME280;11538;48.884;8.696;2023-03-14T03:57:22;96847.31;;;10.79;90.54
22743;BME280;11538;48.884;8.696;2023-03-14T03:59:49;96859.75;;;10.80;90.89
22743;BME280;11538;48.884;8.696;2023-03-14T04:02:16;96846.06;;;10.76;90.64
22743;BME280;11538;48.884;8.696;2023-03-14T04:04:43;96840.22;;;10.74;90.89
22743;BME280;11538;48.884;8.696;2023-03-14T04:07:09;96838.31;;;10.75;90.94
22743;BME280;11538;48.884;8.696;2023-03-14T04:09:37;96839.44;;;10.74;89.86
22743;BME280;11538;48.884;8.696;2023-03-14T04:12:04;96836.72;;;10.74;90.41
22743;BME280;11538;48.884;8.696;2023-03-14T04:14:32;96832.34;;;10.69;89.51
22743;BME280;11538;48.884;8.696;2023-03-14T04:16:58;96828.84;;;10.68;90.56
22743;BME280;11538;48.884;8.696;2023-03-14T04:19:25;96819.16;;;10.67;88.44
22743;BME280;11538;48.884;8.696;2023-03-14T04:21:52;96837.75;;;10.69;88.86
22743;BME280;11538;48.884;8.696;2023-03-14T04:24:19;96834.28;;;10.68;87.78
22743;BME280;11538;48.884;8.696;2023-03-14T04:26:46;96829.56;;;10.65;88.62
22743;BME280;11538;48.884;8.696;2023-03-14T04:29:13;96835.41;;;10.67;89.11
22743;BME280;11538;48.884;8.696;2023-03-14T04:31:40;96822.19;;;10.66;87.94
22743;BME280;11538;48.884;8.696;2023-03-14T04:34:07;96816.00;;;10.65;88.13
22743;BME280;11538;48.884;8.696;2023-03-14T04:36:33;96814.41;;;10.64;87.59
22743;BME280;11538;48.884;8.696;2023-03-14T04:39:02;96807.44;;;10.63;87.48
22743;BME280;11538;48.884;8.696;2023-03-14T04:41:30;96809.78;;;10.65;88.24
22743;BME280;11538;48.884;8.696;2023-03-14T04:43:57;96798.16;;;10.64;86.43
22743;BME280;11538;48.884;8.696;2023-03-14T04:46:24;96796.66;;;10.67;87.50
22743;BME280;11538;48.884;8.696;2023-03-14T04:48:51;96804.72;;;10.63;87.59
22743;BME280;11538;48.884;8.696;2023-03-14T04:51:18;96792.38;;;10.66;87.89
22743;BME280;11538;48.884;8.696;2023-03-14T04:53:45;96783.78;;;10.64;87.27
22743;BME280;11538;48.884;8.696;2023-03-14T04:56:12;96791.84;;;10.60;87.33
22743;BME280;11538;48.884;8.696;2023-03-14T04:58:39;96777.16;;;10.61;88.13
22743;BME280;11538;48.884;8.696;2023-03-14T05:01:06;96770.94;;;10.61;87.30
22743;BME280;11538;48.884;8.696;2023-03-14T05:03:33;96771.75;;;10.61;87.77
22743;BME280;11538;48.884;8.696;2023-03-14T05:06:03;96770.16;;;10.60;87.90
22743;BME280;11538;48.884;8.696;2023-03-14T05:08:30;96780.22;;;10.60;87.63
22743;BME280;11538;48.884;8.696;2023-03-14T05:10:58;96774.78;;;10.60;88.35
22743;BME280;11538;48.884;8.696;2023-03-14T05:13:25;96771.19;;;10.56;87.94
22743;BME280;11538;48.884;8.696;2023-03-14T05:15:52;96766.56;;;10.56;88.71
22743;BME280;11538;48.884;8.696;2023-03-14T05:18:19;96768.81;;;10.54;88.32
22743;BME280;11538;48.884;8.696;2023-03-14T05:20:46;96771.97;;;10.56;89.01
22743;BME280;11538;48.884;8.696;2023-03-14T05:23:13;96772.41;;;10.58;89.55
22743;BME280;11538;48.884;8.696;2023-03-14T05:25:43;96766.56;;;10.56;88.37
22743;BME280;11538;48.884;8.696;2023-03-14T05:28:11;96767.00;;;10.58;88.72
22743;BME280;11538;48.884;8.696;2023-03-14T05:30:38;96773.56;;;10.57;88.44
22743;BME280;11538;48.884;8.696;2023-03-14T05:33:04;96774.78;;;10.60;88.51
22743;BME280;11538;48.884;8.696;2023-03-14T05:35:31;96782.22;;;10.63;88.09
22743;BME280;11538;48.884;8.696;2023-03-14T05:37:58;96787.75;;;10.66;88.00
22743;BME280;11538;48.884;8.696;2023-03-14T05:40:25;96773.06;;;10.67;88.06
22743;BME280;11538;48.884;8.696;2023-03-14T05:42:52;96772.69;;;10.69;88.18
22743;BME280;11538;48.884;8.696;2023-03-14T05:45:19;96773.06;;;10.67;87.34
22743;BME280;11538;48.884;8.696;2023-03-14T05:47:46;96765.38;;;10.70;85.31
22743;BME280;11538;48.884;8.696;2023-03-14T05:50:13;96761.16;;;10.72;85.70
22743;BME280;11538;48.884;8.696;2023-03-14T05:52:40;96747.59;;;10.72;85.12
22743;BME280;11538;48.884;8.696;2023-03-14T05:55:07;96752.25;;;10.72;85.04
22743;BME280;11538;48.884;8.696;2023-03-14T05:57:34;96751.88;;;10.73;84.11
22743;BME280;11538;48.884;8.696;2023-03-14T06:00:01;96760.00;;;10.73;83.77
22743;BME280;11538;48.884;8.696;2023-03-14T06:02:28;96735.28;;;10.75;84.44
22743;BME280;11538;48.884;8.696;2023-03-14T06:04:55;96734.47;;;10.74;83.11
22743;BME280;11538;48.884;8.696;2023-03-14T06:07:22;96734.47;;;10.74;83.65
22743;BME280;11538;48.884;8.696;2023-03-14T06:09:48;96737.53;;;10.73;82.82
22743;BME280;11538;48.884;8.696;2023-03-14T06:12:15;96734.03;;;10.72;82.52
22743;BME280;11538;48.884;8.696;2023-03-14T06:14:44;96721.28;;;10.73;82.34
22743;BME280;11538;48.884;8.696;2023-03-14T06:17:10;96730.13;;;10.70;83.41
22743;BME280;11538;48.884;8.696;2023-03-14T06:19:37;96726.97;;;10.67;83.38
22743;BME280;11538;48.884;8.696;2023-03-14T06:22:04;96734.75;;;10.69;83.64
22743;BME280;11538;48.884;8.696;2023-03-14T06:24:31;96723.56;;;10.71;83.47
22743;BME280;11538;48.884;8.696;2023-03-14T06:26:58;96708.06;;;10.71;84.27
22743;BME280;11538;48.884;8.696;2023-03-14T06:29:24;96699.59;;;10.73;83.78
22743;BME280;11538;48.884;8.696;2023-03-14T06:31:51;96702.63;;;10.71;83.72
22743;BME280;11538;48.884;8.696;2023-03-14T06:34:18;96713.16;;;10.73;83.75
22743;BME280;11538;48.884;8.696;2023-03-14T06:36:45;96693.81;;;10.74;83.55
22743;BME280;11538;48.884;8.696;2023-03-14T06:39:12;96687.25;;;10.75;81.91
22743;BME280;11538;48.884;8.696;2023-03-14T06:41:39;96702.91;;;10.82;80.83
22743;BME280;11538;48.884;8.696;2023-03-14T06:44:06;96707.63;;;10.85;80.91
22743;BME280;11538;48.884;8.696;2023-03-14T06:46:33;96709.25;;;10.90;81.55
22743;BME280;11538;48.884;8.696;2023-03-14T06:49:00;96708.91;;;10.91;81.79
22743;BME280;11538;48.884;8.696;2023-03-14T06:51:27;96722.53;;;10.95;81.79
22743;BME280;11538;48.884;8.696;2023-03-14T06:53:56;96719.13;;;10.98;82.31
22743;BME280;11538;48.884;8.696;2023-03-14T06:56:23;96715.00;;;11.04;82.45
22743;BME280;11538;48.884;8.696;2023-03-14T06:58:50;96720.94;;;11.10;82.03
22743;BME280;11538;48.884;8.696;2023-03-14T07:01:27;96723.72;;;11.14;81.57
22743;BME280;11538;48.884;8.696;2023-03-14T07:03:55;96731.53;;;11.15;81.07
22743;BME280;11538;48.884;8.696;2023-03-14T07:06:22;96729.25;;;11.17;81.08
22743;BME280;11538;48.884;8.696;2023-03-14T07:08:49;96745.69;;;11.24;81.63
22743;BME280;11538;48.884;8.696;2023-03-14T07:11:16;96747.34;;;11.29;79.83
22743;BME280;11538;48.884;8.696;2023-03-14T07:13:43;96731.94;;;11.33;79.39
22743;BME280;11538;48.884;8.696;2023-03-14T07:16:10;96739.69;;;11.35;79.60
22743;BME280;11538;48.884;8.696;2023-03-14T07:18:36;96749.50;;;11.39;79.96
22743;BME280;11538;48.884;8.696;2023-03-14T07:21:06;96749.50;;;11.39;79.38
22743;BME280;11538;48.884;8.696;2023-03-14T07:23:33;96750.72;;;11.42;80.01
22743;BME280;11538;48.884;8.696;2023-03-14T07:26:00;96754.66;;;11.45;80.69
22743;BME280;11538;48.884;8.696;2023-03-14T07:28:27;96756.56;;;11.44;80.10
22743;BME280;11538;48.884;8.696;2023-03-14T07:30:55;96767.00;;;11.42;79.99
22743;BME280;11538;48.884;8.696;2023-03-14T07:33:22;96772.00;;;11.40;80.09
22743;BME280;11538;48.884;8.696;2023-03-14T07:35:49;96762.28;;;11.39;80.45
22743;BME280;11538;48.884;8.696;2023-03-14T07:38:17;96779.69;;;11.38;80.41
22743;BME280;11538;48.884;8.696;2023-03-14T07:40:46;96776.22;;;11.37;80.82
22743;BME280;11538;48.884;8.696;2023-03-14T07:43:12;96772.34;;;11.38;81.07
22743;BME280;11538;48.884;8.696;2023-03-14T07:45:39;96780.13;;;11.40;80.68
22743;BME280;11538;48.884;8.696;2023-03-14T07:48:09;96789.94;;;11.45;80.75
22743;BME280;11538;48.884;8.696;2023-03-14T07:50:36;96777.94;;;11.46;80.33
22743;BME280;11538;48.884;8.696;2023-03-14T07:53:03;96784.56;;;11.48;80.07
22743;BME280;11538;48.884;8.696;2023-03-14T07:55:30;96781.16;;;11.51;80.47
22743;BME280;11538;48.884;8.696;2023-03-14T07:57:57;96789.72;;;11.53;80.17
22743;BME280;11538;48.884;8.696;2023-03-14T08:00:24;96785.97;;;11.58;80.35
22743;BME280;11538;48.884;8.696;2023-03-14T08:02:50;96782.16;;;11.63;80.17
22743;BME280;11538;48.884;8.696;2023-03-14T08:05:17;96785.69;;;11.63;79.76
22743;BME280;11538;48.884;8.696;2023-03-14T08:07:44;96789.16;;;11.64;80.19
22743;BME280;11538;48.884;8.696;2023-03-14T08:10:11;96782.59;;;11.65;80.22
22743;BME280;11538;48.884;8.696;2023-03-14T08:12:42;96786.88;;;11.66;80.37
22743;BME280;11538;48.884;8.696;2023-03-14T08:15:09;96784.59;;;11.68;81.21
22743;BME280;11538;48.884;8.696;2023-03-14T08:17:36;96784.53;;;11.64;80.63
22743;BME280;11538;48.884;8.696;2023-03-14T08:20:04;96786.09;;;11.65;80.88
22743;BME280;11538;48.884;8.696;2023-03-14T08:22:34;96774.97;;;11.70;80.86
22743;BME280;11538;48.884;8.696;2023-03-14T08:25:01;96785.03;;;11.70;80.71
22743;BME280;11538;48.884;8.696;2023-03-14T08:27:28;96774.69;;;11.76;81.22
22743;BME280;11538;48.884;8.696;2023-03-14T08:29:55;96794.56;;;11.80;80.90
22743;BME280;11538;48.884;8.696;2023-03-14T08:32:22;96780.59;;;11.81;80.34
22743;BME280;11538;48.884;8.696;2023-03-14T08:34:50;96789.53;;;11.82;80.28
22743;BME280;11538;48.884;8.696;2023-03-14T08:37:17;96785.47;;;11.92;80.89
22743;BME280;11538;48.884;8.696;2023-03-14T08:39:53;96790.38;;;12.02;78.96
22743;BME280;11538;48.884;8.696;2023-03-14T08:42:20;96799.38;;;12.06;78.41
22743;BME280;11538;48.884;8.696;2023-03-14T08:44:47;96799.38;;;12.06;79.00
22743;BME280;11538;48.884;8.696;2023-03-14T08:47:14;96784.72;;;12.11;81.40
22743;BME280;11538;48.884;8.696;2023-03-14T08:49:41;96807.53;;;12.06;81.37
22743;BME280;11538;48.884;8.696;2023-03-14T08:52:08;96801.69;;;12.04;81.72
22743;BME280;11538;48.884;8.696;2023-03-14T08:54:35;96798.16;;;12.04;82.37
22743;BME280;11538;48.884;8.696;2023-03-14T08:57:02;96802.59;;;12.12;82.85
22743;BME280;11538;48.884;8.696;2023-03-14T08:59:29;96803.53;;;12.20;82.16
22743;BME280;11538;48.884;8.696;2023-03-14T09:01:56;96806.25;;;12.20;80.86
22743;BME280;11538;48.884;8.696;2023-03-14T09:04:23;96801.28;;;12.25;82.36
22743;BME280;11538;48.884;8.696;2023-03-14T09:06:52;96797.41;;;12.26;82.15
22743;BME280;11538;48.884;8.696;2023-03-14T09:09:19;96800.78;;;12.39;81.32
22743;BME280;11538;48.884;8.696;2023-03-14T09:11:46;96816.69;;;12.61;80.17
22743;BME280;11538;48.884;8.696;2023-03-14T09:14:13;96827.00;;;12.51;80.57
22743;BME280;11538;48.884;8.696;2023-03-14T09:16:40;96811.19;;;12.57;81.23
22743;BME280;11538;48.884;8.696;2023-03-14T09:19:07;96814.31;;;12.59;80.30
22743;BME280;11538;48.884;8.696;2023-03-14T09:21:34;96817.41;;;12.57;80.60
22743;BME280;11538;48.884;8.696;2023-03-14T09:24:01;96821.50;;;12.48;78.97
22743;BME280;11538;48.884;8.696;2023-03-14T09:26:28;96824.38;;;12.35;80.26
22743;BME280;11538;48.884;8.696;2023-03-14T09:28:55;96829.81;;;12.35;80.03
22743;BME280;11538;48.884;8.696;2023-03-14T09:31:24;96819.09;;;12.42;79.42
22743;BME280;11538;48.884;8.696;2023-03-14T09:33:51;96829.06;;;12.58;78.82
22743;BME280;11538;48.884;8.696;2023-03-14T09:36:18;96832.47;;;12.75;78.11
22743;BME280;11538;48.884;8.696;2023-03-14T09:38:45;96821.91;;;12.93;76.80
22743;BME280;11538;48.884;8.696;2023-03-14T09:41:29;96827.81;;;12.98;76.05
22743;BME280;11538;48.884;8.696;2023-03-14T09:44:10;96834.63;;;13.12;76.17
22743;BME280;11538;48.884;8.696;2023-03-14T09:46:43;96843.31;;;13.21;74.86
22743;BME280;11538;48.884;8.696;2023-03-14T09:49:30;96846.47;;;13.23;73.62
22743;BME280;11538;48.884;8.696;2023-03-14T09:52:02;96843.63;;;13.39;72.70
22743;BME280;11538;48.884;8.696;2023-03-14T09:54:42;96841.72;;;13.67;71.43
22743;BME280;11538;48.884;8.696;2023-03-14T09:57:20;96853.47;;;14.01;70.70
22743;BME280;11538;48.884;8.696;2023-03-14T09:59:50;96850.69;;;13.98;69.88
22743;BME280;11538;48.884;8.696;2023-03-14T10:02:25;96839.50;;;13.76;70.42
22743;BME280;11538;48.884;8.696;2023-03-14T10:04:54;96837.44;;;13.69;70.40
22743;BME280;11538;48.884;8.696;2023-03-14T10:07:32;96867.84;;;13.44;71.36
22743;BME280;11538;48.884;8.696;2023-03-14T10:10:00;96865.09;;;13.21;74.31
22743;BME280;11538;48.884;8.696;2023-03-14T10:12:34;96867.13;;;13.01;76.69
22743;BME280;11538;48.884;8.696;2023-03-14T10:15:10;96858.47;;;12.95;79.08
22743;BME280;11538;48.884;8.696;2023-03-14T10:17:50;96856.91;;;12.94;78.69
22743;BME280;11538;48.884;8.696;2023-03-14T10:20:43;96857.63;;;12.91;77.82
22743;BME280;11538;48.884;8.696;2023-03-14T10:26:00;96858.34;;;12.88;78.91
22743;BME280;11538;48.884;8.696;2023-03-14T10:28:39;96858.03;;;12.93;80.70
22743;BME280;11538;48.884;8.696;2023-03-14T10:31:07;96854.47;;;12.89;81.74
22743;BME280;11538;48.884;8.696;2023-03-14T10:33:36;96856.66;;;12.80;83.89
22743;BME280;11538;48.884;8.696;2023-03-14T10:38:43;96894.00;;;12.60;86.76
22743;BME280;11538;48.884;8.696;2023-03-14T10:41:25;96883.47;;;12.38;90.28
22743;BME280;11538;48.884;8.696;2023-03-14T10:44:00;96884.47;;;12.10;88.92
22743;BME280;11538;48.884;8.696;2023-03-14T10:46:32;96876.94;;;12.04;89.53
22743;BME280;11538;48.884;8.696;2023-03-14T10:49:05;96886.47;;;12.13;92.29
22743;BME280;11538;48.884;8.696;2023-03-14T10:51:33;96900.19;;;12.01;90.06
22743;BME280;11538;48.884;8.696;2023-03-14T10:54:12;96903.97;;;11.80;90.78
22743;BME280;11538;48.884;8.696;2023-03-14T10:56:40;96901.88;;;11.74;90.21
22743;BME280;11538;48.884;8.696;2023-03-14T10:59:14;96903.97;;;11.80;90.46
22743;BME280;11538;48.884;8.696;2023-03-14T11:02:34;96916.56;;;11.53;90.24
22743;BME280;11538;48.884;8.696;2023-03-14T11:05:34;96908.03;;;11.54;92.51
22743;BME280;11538;48.884;8.696;2023-03-14T11:08:14;96911.13;;;11.53;89.53
22743;BME280;11538;48.884;8.696;2023-03-14T11:10:52;96917.84;;;11.43;90.02
22743;BME280;11538;48.884;8.696;2023-03-14T11:18:46;96943.97;;;11.48;91.45
22743;BME280;11538;48.884;8.696;2023-03-14T11:24:52;96948.94;;;11.30;95.84
22743;BME280;11538;48.884;8.696;2023-03-14T11:27:45;96975.47;;;11.20;99.25
22743;BME280;11538;48.884;8.696;2023-03-14T11:31:08;96964.69;;;11.08;99.59
22743;BME280;11538;48.884;8.696;2023-03-14T11:36:53;96961.41;;;11.02;100.00
22743;BME280;11538;48.884;8.696;2023-03-14T11:39:26;96978.50;;;11.03;100.00
22743;BME280;11538;48.884;8.696;2023-03-14T11:41:59;96986.81;;;11.10;100.00
22743;BME280;11538;48.884;8.696;2023-03-14T11:44:37;96986.72;;;11.06;100.00
22743;BME280;11538;48.884;8.696;2023-03-14T11:47:14;96998.50;;;10.98;100.00
22743;BME280;11538;48.884;8.696;2023-03-14T11:50:03;97003.66;;;10.87;100.00
22743;BME280;11538;48.884;8.696;2023-03-14T11:53:16;97019.66;;;10.64;100.00
22743;BME280;11538;48.884;8.696;2023-03-14T11:55:46;97032.81;;;10.49;100.00
22743;BME280;11538;48.884;8.696;2023-03-14T11:58:31;97053.66;;;10.36;100.00
22743;BME280;11538;48.884;8.696;2023-03-14T12:01:07;97061.50;;;10.26;100.00
22743;BME280;11538;48.884;8.696;2023-03-14T12:04:13;97087.78;;;10.13;100.00
22743;BME280;11538;48.884;8.696;2023-03-14T12:06:49;97100.63;;;9.91;100.00
22743;BME280;11538;48.884;8.696;2023-03-14T12:09:20;97123.78;;;9.55;100.00
22743;BME280;11538;48.884;8.696;2023-03-14T12:11:56;97119.16;;;9.55;100.00
22743;BME280;11538;48.884;8.696;2023-03-14T12:14:30;97146.06;;;9.39;100.00
22743;BME280;11538;48.884;8.696;2023-03-14T12:19:40;97171.34;;;9.22;100.00
22743;BME280;11538;48.884;8.696;2023-03-14T12:22:25;97182.22;;;9.34;100.00
22743;BME280;11538;48.884;8.696;2023-03-14T12:25:03;97185.69;;;9.56;96.97
22743;BME280;11538;48.884;8.696;2023-03-14T12:35:50;97188.13;;;13.49;72.70
22743;BME280;11538;48.884;8.696;2023-03-14T12:38:44;97183.00;;;14.80;67.51
22743;BME280;11538;48.884;8.696;2023-03-14T12:41:44;97188.31;;;16.29;56.98
22743;BME280;11538;48.884;8.696;2023-03-14T12:46:59;97187.97;;;16.31;52.02
22743;BME280;11538;48.884;8.696;2023-03-14T12:49:32;97200.13;;;15.96;52.68
22743;BME280;11538;48.884;8.696;2023-03-14T12:52:01;97216.91;;;15.63;51.51
22743;BME280;11538;48.884;8.696;2023-03-14T12:54:53;97199.28;;;14.26;57.35
22743;BME280;11538;48.884;8.696;2023-03-14T13:00:23;97225.41;;;12.29;58.11
22743;BME280;11538;48.884;8.696;2023-03-14T13:03:17;97212.44;;;11.94;55.99
22743;BME280;11538;48.884;8.696;2023-03-14T13:06:01;97218.47;;;11.87;66.48
22743;BME280;11538;48.884;8.696;2023-03-14T13:08:45;97229.31;;;11.59;55.47
22743;BME280;11538;48.884;8.696;2023-03-14T13:11:19;97241.00;;;11.47;55.26
22743;BME280;11538;48.884;8.696;2023-03-14T13:13:58;97231.81;;;11.51;54.09
22743;BME280;11538;48.884;8.696;2023-03-14T13:16:28;97263.47;;;11.60;57.57
22743;BME280;11538;48.884;8.696;2023-03-14T13:19:13;97252.94;;;11.70;51.16
22743;BME280;11538;48.884;8.696;2023-03-14T13:21:44;97274.47;;;12.97;48.45
22743;BME280;11538;48.884;8.696;2023-03-14T13:24:26;97294.75;;;15.19;43.50
22743;BME280;11538;48.884;8.696;2023-03-14T13:26:55;97296.91;;;15.06;46.44
22743;BME280;11538;48.884;8.696;2023-03-14T13:29:32;97303.75;;;13.71;46.20
22743;BME280;11538;48.884;8.696;2023-03-14T13:32:20;97315.53;;;12.76;48.68
22743;BME280;11538;48.884;8.696;2023-03-14T13:34:48;97316.84;;;13.46;50.12
22743;BME280;11538;48.884;8.696;2023-03-14T13:37:26;97339.75;;;13.29;46.52
22743;BME280;11538;48.884;8.696;2023-03-14T13:39:56;97324.72;;;13.35;45.32
22743;BME280;11538;48.884;8.696;2023-03-14T13:42:29;97341.78;;;13.00;45.91
22743;BME280;11538;48.884;8.696;2023-03-14T13:44:57;97396.19;;;12.68;46.69
22743;BME280;11538;48.884;8.696;2023-03-14T13:47:26;97409.78;;;12.39;46.21
22743;BME280;11538;48.884;8.696;2023-03-14T13:49:53;97382.34;;;12.04;46.40
22743;BME280;11538;48.884;8.696;2023-03-14T13:52:37;97382.72;;;11.77;48.10